sensor_id;sensor_type;location;lat;lon;timestamp;pressure;altitude;pressure_sealevel;temperature;humidity
50166;BME280;36071;48.140;11.516;2022-08-19T00:02:11;95080.0;;;19.3;83.2
50166;BME280;36071;48.140;11.516;2022-08-19T00:07:11;95100.0;;;19.2;83.5
50166;BME280;36071;48.140;11.516;2022-08-19T00:12:11;95100.0;;;19.2;83.2
50166;BME280;36071;48.140;11.516;2022-08-19T00:17:11;95110.0;;;19.2;82.6
50166;BME280;36071;48.140;11.516;2022-08-19T00:22:11;95070.0;;;19.3;83.1
50166;BME280;36071;48.140;11.516;2022-08-19T00:27:11;95060.0;;;19.2;83.2
50166;BME280;36071;48.140;11.516;2022-08-19T00:32:11;95050.0;;;19.3;83.3
50166;BME280;36071;48.140;11.516;2022-08-19T00:37:11;95060.0;;;19.2;82.7
50166;BME280;36071;48.140;11.516;2022-08-19T00:42:11;95050.0;;;19.4;82.9
50166;BME280;36071;48.140;11.516;2022-08-19T00:47:11;95040.0;;;19.3;83.1
50166;BME280;36071;48.140;11.516;2022-08-19T00:52:12;95040.0;;;19.1;84.2
50166;BME280;36071;48.140;11.516;2022-08-19T00:57:12;95020.0;;;19.1;83.7
50166;BME280;36071;48.140;11.516;2022-08-19T01:02:11;95030.0;;;19.2;84.1
50166;BME280;36071;48.140;11.516;2022-08-19T01:07:11;95040.0;;;19.3;83.4
50166;BME280;36071;48.140;11.516;2022-08-19T01:12:11;95030.0;;;19.2;83.7
50166;BME280;36071;48.140;11.516;2022-08-19T01:17:11;95010.0;;;19.3;82.1
50166;BME280;36071;48.140;11.516;2022-08-19T01:22:12;95020.0;;;19.2;82.4
50166;BME280;36071;48.140;11.516;2022-08-19T01:27:11;95020.0;;;19.2;83.4
50166;BME280;36071;48.140;11.516;2022-08-19T01:32:12;95030.0;;;19.2;81.9
50166;BME280;36071;48.140;11.516;2022-08-19T01:37:11;95050.0;;;19.1;83.0
50166;BME280;36071;48.140;11.516;2022-08-19T01:42:11;95050.0;;;19.2;83.4
50166;BME280;36071;48.140;11.516;2022-08-19T01:47:11;95060.0;;;19.1;83.7
50166;BME280;36071;48.140;11.516;2022-08-19T01:52:11;95080.0;;;19.1;83.6
50166;BME280;36071;48.140;11.516;2022-08-19T01:57:12;95080.0;;;19.1;83.8
50166;BME280;36071;48.140;11.516;2022-08-19T02:02:11;95070.0;;;19.1;83.6
50166;BME280;36071;48.140;11.516;2022-08-19T02:07:11;95060.0;;;19.0;83.8
50166;BME280;36071;48.140;11.516;2022-08-19T02:12:11;95070.0;;;19.0;83.9
50166;BME280;36071;48.140;11.516;2022-08-19T02:17:11;95070.0;;;19.0;84.1
50166;BME280;36071;48.140;11.516;2022-08-19T02:22:11;95080.0;;;19.0;83.9
50166;BME280;36071;48.140;11.516;2022-08-19T02:27:11;95100.0;;;18.9;84.4
50166;BME280;36071;48.140;11.516;2022-08-19T02:32:11;95090.0;;;18.9;84.5
50166;BME280;36071;48.140;11.516;2022-08-19T02:37:11;95090.0;;;19.0;83.8
50166;BME280;36071;48.140;11.516;2022-08-19T02:42:11;95080.0;;;18.9;83.5
50166;BME280;36071;48.140;11.516;2022-08-19T02:47:11;95050.0;;;18.9;83.6
50166;BME280;36071;48.140;11.516;2022-08-19T02:52:11;95020.0;;;18.9;83.2
50166;BME280;36071;48.140;11.516;2022-08-19T02:57:11;95030.0;;;19.0;83.6
50166;BME280;36071;48.140;11.516;2022-08-19T03:02:11;95020.0;;;19.0;82.8
50166;BME280;36071;48.140;11.516;2022-08-19T03:07:12;95020.0;;;19.0;83.6
50166;BME280;36071;48.140;11.516;2022-08-19T03:12:11;95030.0;;;19.0;83.5
50166;BME280;36071;48.140;11.516;2022-08-19T03:17:11;95040.0;;;19.0;82.5
50166;BME280;36071;48.140;11.516;2022-08-19T03:22:11;95030.0;;;18.9;83.4
50166;BME280;36071;48.140;11.516;2022-08-19T03:27:11;95060.0;;;18.9;83.0
50166;BME280;36071;48.140;11.516;2022-08-19T03:32:11;95070.0;;;19.0;82.8
50166;BME280;36071;48.140;11.516;2022-08-19T03:37:11;95060.0;;;19.0;83.3
50166;BME280;36071;48.140;11.516;2022-08-19T03:42:11;95050.0;;;18.9;83.4
50166;BME280;36071;48.140;11.516;2022-08-19T03:47:11;95050.0;;;19.0;83.7
50166;BME280;36071;48.140;11.516;2022-08-19T03:52:11;95040.0;;;19.0;83.7
50166;BME280;36071;48.140;11.516;2022-08-19T03:57:11;95060.0;;;18.9;84.1
50166;BME280;36071;48.140;11.516;2022-08-19T04:02:11;95040.0;;;18.9;83.5
50166;BME280;36071;48.140;11.516;2022-08-19T04:07:12;95040.0;;;18.9;83.9
50166;BME280;36071;48.140;11.516;2022-08-19T04:12:11;95050.0;;;18.9;83.5
50166;BME280;36071;48.140;11.516;2022-08-19T04:17:11;95030.0;;;18.9;83.4
50166;BME280;36071;48.140;11.516;2022-08-19T04:22:11;95040.0;;;18.9;83.6
50166;BME280;36071;48.140;11.516;2022-08-19T04:27:11;95050.0;;;19.0;82.9
50166;BME280;36071;48.140;11.516;2022-08-19T04:37:11;95050.0;;;18.9;83.2
50166;BME280;36071;48.140;11.516;2022-08-19T04:42:11;95080.0;;;18.9;82.8
50166;BME280;36071;48.140;11.516;2022-08-19T04:47:11;95090.0;;;18.9;83.7
50166;BME280;36071;48.140;11.516;2022-08-19T04:52:11;95090.0;;;18.9;83.9
50166;BME280;36071;48.140;11.516;2022-08-19T04:57:11;95090.0;;;18.9;85.1
50166;BME280;36071;48.140;11.516;2022-08-19T05:02:11;95090.0;;;18.9;83.9
50166;BME280;36071;48.140;11.516;2022-08-19T05:07:11;95110.0;;;18.9;85.1
50166;BME280;36071;48.140;11.516;2022-08-19T05:12:11;95120.0;;;18.8;84.6
50166;BME280;36071;48.140;11.516;2022-08-19T05:17:11;95100.0;;;18.7;85.3
50166;BME280;36071;48.140;11.516;2022-08-19T05:22:11;95100.0;;;18.8;84.6
50166;BME280;36071;48.140;11.516;2022-08-19T05:27:11;95110.0;;;18.8;84.9
50166;BME280;36071;48.140;11.516;2022-08-19T05:32:11;95100.0;;;18.9;85.1
50166;BME280;36071;48.140;11.516;2022-08-19T05:37:11;95090.0;;;18.8;85.3
50166;BME280;36071;48.140;11.516;2022-08-19T05:42:11;95080.0;;;18.8;84.6
50166;BME280;36071;48.140;11.516;2022-08-19T05:47:12;95080.0;;;18.7;85.0
50166;BME280;36071;48.140;11.516;2022-08-19T05:52:12;95080.0;;;18.8;85.6
50166;BME280;36071;48.140;11.516;2022-08-19T05:57:11;95090.0;;;18.9;84.9
50166;BME280;36071;48.140;11.516;2022-08-19T06:02:11;95090.0;;;18.9;84.4
50166;BME280;36071;48.140;11.516;2022-08-19T06:07:11;95100.0;;;18.9;84.6
50166;BME280;36071;48.140;11.516;2022-08-19T06:12:11;95090.0;;;18.9;84.9
50166;BME280;36071;48.140;11.516;2022-08-19T06:17:11;95090.0;;;18.9;84.8
50166;BME280;36071;48.140;11.516;2022-08-19T06:22:11;95100.0;;;18.9;84.6
50166;BME280;36071;48.140;11.516;2022-08-19T06:27:11;95110.0;;;18.9;84.7
50166;BME280;36071;48.140;11.516;2022-08-19T06:32:11;95110.0;;;18.9;85.4
50166;BME280;36071;48.140;11.516;2022-08-19T06:37:11;95100.0;;;18.9;85.9
50166;BME280;36071;48.140;11.516;2022-08-19T06:42:11;95110.0;;;18.9;86.0
50166;BME280;36071;48.140;11.516;2022-08-19T06:47:13;95100.0;;;18.9;86.4
50166;BME280;36071;48.140;11.516;2022-08-19T06:52:11;95110.0;;;19.0;86.0
50166;BME280;36071;48.140;11.516;2022-08-19T06:57:11;95110.0;;;19.0;86.5
50166;BME280;36071;48.140;11.516;2022-08-19T07:02:11;95100.0;;;19.0;86.0
50166;BME280;36071;48.140;11.516;2022-08-19T07:12:12;95090.0;;;19.0;86.5
50166;BME280;36071;48.140;11.516;2022-08-19T07:17:11;95090.0;;;19.1;86.8
50166;BME280;36071;48.140;11.516;2022-08-19T07:22:11;95070.0;;;19.1;85.9
50166;BME280;36071;48.140;11.516;2022-08-19T07:27:13;95060.0;;;19.1;88.1
50166;BME280;36071;48.140;11.516;2022-08-19T07:32:11;95060.0;;;19.1;87.8
50166;BME280;36071;48.140;11.516;2022-08-19T07:37:11;95050.0;;;19.3;87.6
50166;BME280;36071;48.140;11.516;2022-08-19T07:42:11;95050.0;;;19.5;85.5
50166;BME280;36071;48.140;11.516;2022-08-19T07:47:11;95060.0;;;19.5;85.1
50166;BME280;36071;48.140;11.516;2022-08-19T07:52:11;95080.0;;;19.5;84.5
50166;BME280;36071;48.140;11.516;2022-08-19T07:57:11;95080.0;;;19.4;86.0
50166;BME280;36071;48.140;11.516;2022-08-19T08:02:11;95080.0;;;19.4;86.6
50166;BME280;36071;48.140;11.516;2022-08-19T08:07:11;95080.0;;;19.5;85.9
50166;BME280;36071;48.140;11.516;2022-08-19T08:12:12;95080.0;;;19.5;85.8
50166;BME280;36071;48.140;11.516;2022-08-19T08:17:11;95090.0;;;19.6;84.5
50166;BME280;36071;48.140;11.516;2022-08-19T08:22:13;95090.0;;;19.5;84.9
50166;BME280;36071;48.140;11.516;2022-08-19T08:27:11;95090.0;;;19.4;84.4
50166;BME280;36071;48.140;11.516;2022-08-19T08:32:11;95090.0;;;19.4;84.5
50166;BME280;36071;48.140;11.516;2022-08-19T08:37:11;95100.0;;;19.5;84.4
50166;BME280;36071;48.140;11.516;2022-08-19T08:42:12;95100.0;;;19.4;84.8
50166;BME280;36071;48.140;11.516;2022-08-19T08:47:12;95110.0;;;19.4;85.0
50166;BME280;36071;48.140;11.516;2022-08-19T08:52:13;95120.0;;;19.4;84.6
50166;BME280;36071;48.140;11.516;2022-08-19T08:57:12;95110.0;;;19.5;84.4
50166;BME280;36071;48.140;11.516;2022-08-19T09:02:11;95120.0;;;19.5;84.3
50166;BME280;36071;48.140;11.516;2022-08-19T09:07:16;95130.0;;;19.4;84.2
50166;BME280;36071;48.140;11.516;2022-08-19T09:12:13;95140.0;;;19.4;85.0
50166;BME280;36071;48.140;11.516;2022-08-19T09:17:12;95130.0;;;19.3;87.1
50166;BME280;36071;48.140;11.516;2022-08-19T09:22:11;95130.0;;;19.3;88.6
50166;BME280;36071;48.140;11.516;2022-08-19T09:27:11;95120.0;;;19.3;89.4
50166;BME280;36071;48.140;11.516;2022-08-19T09:32:11;95120.0;;;19.4;90.6
50166;BME280;36071;48.140;11.516;2022-08-19T09:37:11;95130.0;;;19.4;89.7
50166;BME280;36071;48.140;11.516;2022-08-19T09:42:11;95130.0;;;19.5;88.5
50166;BME280;36071;48.140;11.516;2022-08-19T09:47:12;95120.0;;;19.5;88.7
50166;BME280;36071;48.140;11.516;2022-08-19T09:52:11;95120.0;;;19.5;90.7
50166;BME280;36071;48.140;11.516;2022-08-19T09:57:11;95120.0;;;19.6;91.2
50166;BME280;36071;48.140;11.516;2022-08-19T10:02:11;95130.0;;;19.7;89.2
50166;BME280;36071;48.140;11.516;2022-08-19T10:07:11;95140.0;;;19.6;90.4
50166;BME280;36071;48.140;11.516;2022-08-19T10:12:11;95150.0;;;19.6;91.7
50166;BME280;36071;48.140;11.516;2022-08-19T10:17:11;95140.0;;;19.6;90.8
50166;BME280;36071;48.140;11.516;2022-08-19T10:22:11;95120.0;;;19.9;91.6
50166;BME280;36071;48.140;11.516;2022-08-19T10:27:11;95120.0;;;20.2;88.7
50166;BME280;36071;48.140;11.516;2022-08-19T10:32:11;95120.0;;;20.5;86.3
50166;BME280;36071;48.140;11.516;2022-08-19T10:37:11;95120.0;;;20.9;82.8
50166;BME280;36071;48.140;11.516;2022-08-19T10:42:11;95110.0;;;21.6;79.8
50166;BME280;36071;48.140;11.516;2022-08-19T10:47:13;95110.0;;;21.5;78.9
50166;BME280;36071;48.140;11.516;2022-08-19T10:52:11;95110.0;;;21.5;79.3
50166;BME280;36071;48.140;11.516;2022-08-19T10:57:11;95110.0;;;21.3;79.1
50166;BME280;36071;48.140;11.516;2022-08-19T11:02:11;95110.0;;;21.3;79.0
50166;BME280;36071;48.140;11.516;2022-08-19T11:07:11;95110.0;;;21.5;76.8
50166;BME280;36071;48.140;11.516;2022-08-19T11:12:11;95100.0;;;21.4;78.8
50166;BME280;36071;48.140;11.516;2022-08-19T11:17:11;95110.0;;;21.2;79.8
50166;BME280;36071;48.140;11.516;2022-08-19T11:22:11;95100.0;;;21.4;78.1
50166;BME280;36071;48.140;11.516;2022-08-19T11:27:11;95090.0;;;21.1;78.1
50166;BME280;36071;48.140;11.516;2022-08-19T11:32:11;95090.0;;;21.8;73.3
50166;BME280;36071;48.140;11.516;2022-08-19T11:37:14;95100.0;;;22.3;72.0
50166;BME280;36071;48.140;11.516;2022-08-19T11:42:11;95100.0;;;22.3;72.6
50166;BME280;36071;48.140;11.516;2022-08-19T11:47:11;95110.0;;;22.1;70.7
50166;BME280;36071;48.140;11.516;2022-08-19T11:52:11;95090.0;;;22.2;70.3
50166;BME280;36071;48.140;11.516;2022-08-19T11:57:11;95110.0;;;22.1;72.0
50166;BME280;36071;48.140;11.516;2022-08-19T12:02:11;95110.0;;;21.7;71.2
50166;BME280;36071;48.140;11.516;2022-08-19T12:07:11;95120.0;;;21.6;72.6
50166;BME280;36071;48.140;11.516;2022-08-19T12:12:11;95120.0;;;21.3;72.3
50166;BME280;36071;48.140;11.516;2022-08-19T12:17:11;95120.0;;;21.3;72.8
50166;BME280;36071;48.140;11.516;2022-08-19T12:22:11;95130.0;;;21.2;72.3
50166;BME280;36071;48.140;11.516;2022-08-19T12:27:11;95140.0;;;21.4;71.9
50166;BME280;36071;48.140;11.516;2022-08-19T12:32:11;95130.0;;;21.7;70.5
50166;BME280;36071;48.140;11.516;2022-08-19T12:37:11;95140.0;;;21.7;71.7
50166;BME280;36071;48.140;11.516;2022-08-19T12:42:12;95130.0;;;21.8;70.4
50166;BME280;36071;48.140;11.516;2022-08-19T12:47:12;95140.0;;;21.7;69.0
50166;BME280;36071;48.140;11.516;2022-08-19T12:52:11;95140.0;;;21.8;68.1
50166;BME280;36071;48.140;11.516;2022-08-19T12:57:11;95130.0;;;21.7;67.7
50166;BME280;36071;48.140;11.516;2022-08-19T13:02:11;95130.0;;;22.0;67.1
50166;BME280;36071;48.140;11.516;2022-08-19T13:07:11;95140.0;;;22.6;65.9
50166;BME280;36071;48.140;11.516;2022-08-19T13:12:11;95140.0;;;22.9;64.9
50166;BME280;36071;48.140;11.516;2022-08-19T13:17:11;95130.0;;;23.3;62.3
50166;BME280;36071;48.140;11.516;2022-08-19T13:22:11;95140.0;;;23.5;61.7
50166;BME280;36071;48.140;11.516;2022-08-19T13:27:11;95130.0;;;23.5;61.8
50166;BME280;36071;48.140;11.516;2022-08-19T13:32:11;95110.0;;;23.3;62.8
50166;BME280;36071;48.140;11.516;2022-08-19T13:37:11;95120.0;;;23.0;64.0
50166;BME280;36071;48.140;11.516;2022-08-19T13:42:11;95120.0;;;22.9;64.0
50166;BME280;36071;48.140;11.516;2022-08-19T13:47:11;95130.0;;;22.8;65.1
50166;BME280;36071;48.140;11.516;2022-08-19T13:52:11;95130.0;;;22.4;66.0
50166;BME280;36071;48.140;11.516;2022-08-19T13:57:12;95130.0;;;22.1;66.9
50166;BME280;36071;48.140;11.516;2022-08-19T14:02:11;95120.0;;;22.2;67.0
50166;BME280;36071;48.140;11.516;2022-08-19T14:07:11;95130.0;;;22.8;65.5
50166;BME280;36071;48.140;11.516;2022-08-19T14:12:11;95130.0;;;22.9;64.3
50166;BME280;36071;48.140;11.516;2022-08-19T14:17:11;95130.0;;;23.2;64.3
50166;BME280;36071;48.140;11.516;2022-08-19T14:22:11;95130.0;;;23.3;63.5
50166;BME280;36071;48.140;11.516;2022-08-19T14:27:11;95140.0;;;22.9;63.6
50166;BME280;36071;48.140;11.516;2022-08-19T14:32:11;95130.0;;;22.7;64.0
50166;BME280;36071;48.140;11.516;2022-08-19T14:37:11;95150.0;;;22.6;64.9
50166;BME280;36071;48.140;11.516;2022-08-19T14:42:11;95150.0;;;22.7;64.6
50166;BME280;36071;48.140;11.516;2022-08-19T14:47:11;95160.0;;;22.5;65.5
50166;BME280;36071;48.140;11.516;2022-08-19T14:52:11;95150.0;;;22.2;66.8
50166;BME280;36071;48.140;11.516;2022-08-19T14:57:11;95150.0;;;22.3;65.6
50166;BME280;36071;48.140;11.516;2022-08-19T15:02:11;95160.0;;;22.3;64.3
50166;BME280;36071;48.140;11.516;2022-08-19T15:07:11;95160.0;;;22.4;64.4
50166;BME280;36071;48.140;11.516;2022-08-19T15:12:11;95160.0;;;22.4;64.5
50166;BME280;36071;48.140;11.516;2022-08-19T15:17:11;95160.0;;;22.2;64.5
50166;BME280;36071;48.140;11.516;2022-08-19T15:22:11;95170.0;;;22.1;66.0
50166;BME280;36071;48.140;11.516;2022-08-19T15:27:11;95180.0;;;21.5;72.7
50166;BME280;36071;48.140;11.516;2022-08-19T15:32:11;95180.0;;;21.1;75.2
50166;BME280;36071;48.140;11.516;2022-08-19T15:37:11;95180.0;;;21.2;75.6
50166;BME280;36071;48.140;11.516;2022-08-19T15:42:11;95180.0;;;21.4;75.7
50166;BME280;36071;48.140;11.516;2022-08-19T15:47:11;95190.0;;;21.3;76.2
50166;BME280;36071;48.140;11.516;2022-08-19T15:52:11;95190.0;;;21.4;75.5
50166;BME280;36071;48.140;11.516;2022-08-19T15:57:11;95190.0;;;21.3;76.7
50166;BME280;36071;48.140;11.516;2022-08-19T16:02:11;95190.0;;;21.4;75.7
50166;BME280;36071;48.140;11.516;2022-08-19T16:07:11;95200.0;;;21.4;75.2
50166;BME280;36071;48.140;11.516;2022-08-19T16:12:11;95200.0;;;21.3;74.8
50166;BME280;36071;48.140;11.516;2022-08-19T16:17:11;95200.0;;;21.3;74.5
50166;BME280;36071;48.140;11.516;2022-08-19T16:22:11;95210.0;;;21.1;74.1
50166;BME280;36071;48.140;11.516;2022-08-19T16:27:11;95210.0;;;20.9;75.1
50166;BME280;36071;48.140;11.516;2022-08-19T16:32:11;95210.0;;;20.7;77.2
50166;BME280;36071;48.140;11.516;2022-08-19T16:37:11;95220.0;;;20.6;76.7
50166;BME280;36071;48.140;11.516;2022-08-19T16:42:11;95230.0;;;20.5;77.5
50166;BME280;36071;48.140;11.516;2022-08-19T16:47:11;95240.0;;;20.4;78.0
50166;BME280;36071;48.140;11.516;2022-08-19T16:52:11;95240.0;;;20.3;77.5
50166;BME280;36071;48.140;11.516;2022-08-19T16:57:11;95250.0;;;20.5;77.6
50166;BME280;36071;48.140;11.516;2022-08-19T17:02:11;95250.0;;;20.6;78.5
50166;BME280;36071;48.140;11.516;2022-08-19T17:07:11;95250.0;;;20.6;77.4
50166;BME280;36071;48.140;11.516;2022-08-19T17:12:11;95260.0;;;20.5;78.4
50166;BME280;36071;48.140;11.516;2022-08-19T17:17:11;95260.0;;;20.6;77.4
50166;BME280;36071;48.140;11.516;2022-08-19T17:22:11;95270.0;;;20.5;77.3
50166;BME280;36071;48.140;11.516;2022-08-19T17:27:11;95280.0;;;20.6;77.2
50166;BME280;36071;48.140;11.516;2022-08-19T17:32:11;95280.0;;;20.5;76.7
50166;BME280;36071;48.140;11.516;2022-08-19T17:37:11;95290.0;;;20.5;77.7
50166;BME280;36071;48.140;11.516;2022-08-19T17:42:11;95290.0;;;20.4;77.9
50166;BME280;36071;48.140;11.516;2022-08-19T17:47:11;95290.0;;;20.3;80.9
50166;BME280;36071;48.140;11.516;2022-08-19T17:52:22;95300.0;;;20.1;82.0
50166;BME280;36071;48.140;11.516;2022-08-19T17:57:11;95310.0;;;20.2;79.7
50166;BME280;36071;48.140;11.516;2022-08-19T18:02:11;95300.0;;;20.1;80.8
50166;BME280;36071;48.140;11.516;2022-08-19T18:07:11;95320.0;;;19.9;82.1
50166;BME280;36071;48.140;11.516;2022-08-19T18:12:11;95310.0;;;20.0;81.2
50166;BME280;36071;48.140;11.516;2022-08-19T18:17:12;95320.0;;;20.0;81.0
50166;BME280;36071;48.140;11.516;2022-08-19T18:22:15;95330.0;;;20.0;82.2
50166;BME280;36071;48.140;11.516;2022-08-19T18:27:11;95330.0;;;19.9;82.7
50166;BME280;36071;48.140;11.516;2022-08-19T18:32:12;95320.0;;;19.9;82.1
50166;BME280;36071;48.140;11.516;2022-08-19T18:37:11;95330.0;;;19.9;82.8
50166;BME280;36071;48.140;11.516;2022-08-19T18:42:12;95340.0;;;19.8;83.1
50166;BME280;36071;48.140;11.516;2022-08-19T18:47:11;95350.0;;;19.9;81.1
50166;BME280;36071;48.140;11.516;2022-08-19T18:52:11;95350.0;;;19.7;81.3
50166;BME280;36071;48.140;11.516;2022-08-19T18:57:11;95360.0;;;19.6;82.1
50166;BME280;36071;48.140;11.516;2022-08-19T19:02:11;95360.0;;;19.6;80.8
50166;BME280;36071;48.140;11.516;2022-08-19T19:07:11;95360.0;;;19.5;81.1
50166;BME280;36071;48.140;11.516;2022-08-19T19:12:11;95360.0;;;19.4;81.8
50166;BME280;36071;48.140;11.516;2022-08-19T19:17:12;95360.0;;;19.3;80.7
50166;BME280;36071;48.140;11.516;2022-08-19T19:22:12;95370.0;;;19.3;81.0
50166;BME280;36071;48.140;11.516;2022-08-19T19:27:12;95360.0;;;19.2;82.1
50166;BME280;36071;48.140;11.516;2022-08-19T19:32:15;95370.0;;;19.3;81.1
50166;BME280;36071;48.140;11.516;2022-08-19T19:37:11;95380.0;;;19.2;80.1
50166;BME280;36071;48.140;11.516;2022-08-19T19:42:12;95390.0;;;19.1;80.9
50166;BME280;36071;48.140;11.516;2022-08-19T19:47:11;95390.0;;;19.1;79.9
50166;BME280;36071;48.140;11.516;2022-08-19T19:52:11;95390.0;;;19.0;79.8
50166;BME280;36071;48.140;11.516;2022-08-19T19:57:11;95390.0;;;18.9;79.6
50166;BME280;36071;48.140;11.516;2022-08-19T20:02:11;95400.0;;;18.8;81.7
50166;BME280;36071;48.140;11.516;2022-08-19T20:07:11;95400.0;;;18.5;82.1
50166;BME280;36071;48.140;11.516;2022-08-19T20:12:11;95420.0;;;18.6;82.0
50166;BME280;36071;48.140;11.516;2022-08-19T20:17:11;95420.0;;;18.5;83.6
50166;BME280;36071;48.140;11.516;2022-08-19T20:22:11;95440.0;;;18.5;83.2
50166;BME280;36071;48.140;11.516;2022-08-19T20:27:11;95440.0;;;18.6;82.3
50166;BME280;36071;48.140;11.516;2022-08-19T20:32:11;95450.0;;;18.6;81.9
50166;BME280;36071;48.140;11.516;2022-08-19T20:37:11;95450.0;;;18.6;82.3
50166;BME280;36071;48.140;11.516;2022-08-19T20:42:11;95440.0;;;18.6;82.6
50166;BME280;36071;48.140;11.516;2022-08-19T20:47:11;95450.0;;;18.6;82.4
50166;BME280;36071;48.140;11.516;2022-08-19T20:52:11;95450.0;;;18.5;84.6
50166;BME280;36071;48.140;11.516;2022-08-19T20:57:11;95450.0;;;18.4;83.5
50166;BME280;36071;48.140;11.516;2022-08-19T21:02:11;95440.0;;;18.4;85.0
50166;BME280;36071;48.140;11.516;2022-08-19T21:07:11;95450.0;;;18.4;83.9
50166;BME280;36071;48.140;11.516;2022-08-19T21:12:11;95440.0;;;18.3;85.3
50166;BME280;36071;48.140;11.516;2022-08-19T21:17:11;95450.0;;;18.4;84.8
50166;BME280;36071;48.140;11.516;2022-08-19T21:22:11;95440.0;;;18.4;85.7
50166;BME280;36071;48.140;11.516;2022-08-19T21:27:11;95450.0;;;18.4;85.7
50166;BME280;36071;48.140;11.516;2022-08-19T21:32:11;95440.0;;;18.4;86.3
50166;BME280;36071;48.140;11.516;2022-08-19T21:37:11;95440.0;;;18.3;86.0
50166;BME280;36071;48.140;11.516;2022-08-19T21:42:11;95450.0;;;18.2;87.7
50166;BME280;36071;48.140;11.516;2022-08-19T21:47:11;95440.0;;;18.3;87.2
50166;BME280;36071;48.140;11.516;2022-08-19T21:52:11;95450.0;;;18.2;87.6
50166;BME280;36071;48.140;11.516;2022-08-19T21:57:11;95450.0;;;18.2;88.3
50166;BME280;36071;48.140;11.516;2022-08-19T22:02:11;95460.0;;;18.2;87.8
50166;BME280;36071;48.140;11.516;2022-08-19T22:07:12;95450.0;;;18.3;87.5
50166;BME280;36071;48.140;11.516;2022-08-19T22:12:18;95450.0;;;18.2;88.6
50166;BME280;36071;48.140;11.516;2022-08-19T22:17:11;95440.0;;;18.3;88.1
50166;BME280;36071;48.140;11.516;2022-08-19T22:22:11;95440.0;;;18.1;88.1
50166;BME280;36071;48.140;11.516;2022-08-19T22:27:11;95440.0;;;18.2;87.2
50166;BME280;36071;48.140;11.516;2022-08-19T22:32:11;95440.0;;;18.1;88.4
50166;BME280;36071;48.140;11.516;2022-08-19T22:37:11;95430.0;;;18.1;87.6
50166;BME280;36071;48.140;11.516;2022-08-19T22:42:11;95430.0;;;18.1;88.1
50166;BME280;36071;48.140;11.516;2022-08-19T22:47:11;95430.0;;;18.0;88.4
50166;BME280;36071;48.140;11.516;2022-08-19T22:52:11;95440.0;;;18.0;88.9
50166;BME280;36071;48.140;11.516;2022-08-19T22:57:11;95430.0;;;18.0;88.2
50166;BME280;36071;48.140;11.516;2022-08-19T23:02:15;95440.0;;;17.9;88.9
50166;BME280;36071;48.140;11.516;2022-08-19T23:07:11;95440.0;;;17.8;89.7
50166;BME280;36071;48.140;11.516;2022-08-19T23:12:11;95440.0;;;17.8;90.0
50166;BME280;36071;48.140;11.516;2022-08-19T23:17:11;95440.0;;;17.9;89.8
50166;BME280;36071;48.140;11.516;2022-08-19T23:22:14;95440.0;;;17.8;89.8
50166;BME280;36071;48.140;11.516;2022-08-19T23:27:11;95440.0;;;17.9;89.5
50166;BME280;36071;48.140;11.516;2022-08-19T23:32:11;95440.0;;;17.8;90.4
50166;BME280;36071;48.140;11.516;2022-08-19T23:37:11;95440.0;;;17.8;91.2
50166;BME280;36071;48.140;11.516;2022-08-19T23:42:11;95430.0;;;17.8;90.9
50166;BME280;36071;48.140;11.516;2022-08-19T23:47:12;95430.0;;;17.8;90.8
50166;BME280;36071;48.140;11.516;2022-08-19T23:52:11;95420.0;;;17.8;90.9
50166;BME280;36071;48.140;11.516;2022-08-19T23:57:11;95420.0;;;17.7;90.6
